createdAt,value
2023-06-04T00:02:26.542Z,17.27
2023-06-04T00:04:53.835Z,17.67
2023-06-04T00:07:21.191Z,13.80
2023-06-04T00:09:48.357Z,14.70
2023-06-04T00:12:16.685Z,18.07
2023-06-04T00:14:43.900Z,14.17
2023-06-04T00:17:11.917Z,11.83
2023-06-04T00:19:42.146Z,12.63
2023-06-04T00:22:09.776Z,12.73
2023-06-04T00:24:39.919Z,13.40
2023-06-04T00:27:11.541Z,12.10
2023-06-04T00:29:38.439Z,12.73
2023-06-04T00:32:06.054Z,10.70
2023-06-04T00:34:33.106Z,9.63
2023-06-04T00:37:02.593Z,13.97
2023-06-04T00:39:30.435Z,19.10
2023-06-04T00:41:57.683Z,11.60
2023-06-04T00:44:26.365Z,13.30
2023-06-04T00:46:54.912Z,15.15
2023-06-04T00:49:21.947Z,14.60
2023-06-04T00:51:49.456Z,11.13
2023-06-04T00:54:19.156Z,13.83
2023-06-04T00:56:49.308Z,8.20
2023-06-04T00:59:16.415Z,11.57
2023-06-04T01:01:54.853Z,8.63
2023-06-04T01:04:30.480Z,9.48
2023-06-04T01:06:59.700Z,11.17
2023-06-04T01:09:30.855Z,9.13
2023-06-04T01:12:03.000Z,8.97
2023-06-04T01:14:30.402Z,8.90
2023-06-04T01:17:12.676Z,9.03
2023-06-04T01:19:44.009Z,8.10
2023-06-04T01:22:25.254Z,14.30
2023-06-04T01:24:57.223Z,10.87
2023-06-04T01:27:24.809Z,8.00
2023-06-04T01:29:52.553Z,8.97
2023-06-04T01:32:20.311Z,9.97
2023-06-04T01:34:47.783Z,11.40
2023-06-04T01:37:15.045Z,7.77
2023-06-04T01:39:42.149Z,7.30
2023-06-04T01:42:09.995Z,10.07
2023-06-04T01:44:36.877Z,9.33
2023-06-04T01:47:04.215Z,9.17
2023-06-04T01:49:31.165Z,9.93
2023-06-04T01:51:58.387Z,9.63
2023-06-04T01:54:25.292Z,5.83
2023-06-04T01:56:52.459Z,9.93
2023-06-04T01:59:19.489Z,7.20
2023-06-04T02:01:46.694Z,10.90
2023-06-04T02:04:13.608Z,7.13
2023-06-04T02:06:40.800Z,8.93
2023-06-04T02:09:07.760Z,10.13
2023-06-04T02:11:35.021Z,5.77
2023-06-04T02:14:01.927Z,8.13
2023-06-04T02:16:29.216Z,15.30
2023-06-04T02:18:56.083Z,7.23
2023-06-04T02:21:23.267Z,10.93
2023-06-04T02:23:50.289Z,9.10
2023-06-04T02:26:17.572Z,6.40
2023-06-04T02:28:44.476Z,11.67
2023-06-04T02:31:11.752Z,9.00
2023-06-04T02:33:39.191Z,8.60
2023-06-04T02:36:06.722Z,11.13
2023-06-04T02:38:34.764Z,12.43
2023-06-04T02:41:01.929Z,11.55
2023-06-04T02:43:28.783Z,9.47
2023-06-04T02:45:55.971Z,13.43
2023-06-04T02:48:22.832Z,9.40
2023-06-04T02:50:50.004Z,8.70
2023-06-04T02:53:16.897Z,6.77
2023-06-04T02:55:44.189Z,6.47
2023-06-04T02:58:11.113Z,7.50
2023-06-04T03:00:38.350Z,7.97
2023-06-04T03:03:05.370Z,8.37
2023-06-04T03:05:34.370Z,8.53
2023-06-04T03:08:03.887Z,6.60
2023-06-04T03:10:32.388Z,11.27
2023-06-04T03:12:59.501Z,7.47
2023-06-04T03:15:26.879Z,6.33
2023-06-04T03:17:53.922Z,7.37
2023-06-04T03:20:25.186Z,9.97
2023-06-04T03:22:53.200Z,10.23
2023-06-04T03:25:20.394Z,10.90
2023-06-04T03:27:47.307Z,10.77
2023-06-04T03:30:14.647Z,8.20
2023-06-04T03:32:41.648Z,5.00
2023-06-04T03:35:09.309Z,7.17
2023-06-04T03:37:36.199Z,5.47
2023-06-04T03:40:05.149Z,6.73
2023-06-04T03:42:32.030Z,11.60
2023-06-04T03:45:00.665Z,18.53
2023-06-04T03:47:27.671Z,20.90
2023-06-04T03:49:54.981Z,20.00
2023-06-04T03:52:21.940Z,8.90
2023-06-04T03:54:49.106Z,9.23
2023-06-04T03:57:16.098Z,13.03
2023-06-04T03:59:43.237Z,8.07
2023-06-04T04:02:10.213Z,8.00
2023-06-04T04:04:37.455Z,13.27
2023-06-04T04:07:04.399Z,13.60
2023-06-04T04:09:31.545Z,10.63
2023-06-04T04:11:58.542Z,6.67
2023-06-04T04:14:25.719Z,5.93
2023-06-04T04:16:52.638Z,6.20
2023-06-04T04:19:19.870Z,8.37
2023-06-04T04:21:49.542Z,6.25
2023-06-04T04:24:27.273Z,6.40
2023-06-04T04:26:55.211Z,7.38
2023-06-04T04:29:26.212Z,10.30
2023-06-04T04:31:53.581Z,8.20
2023-06-04T04:34:22.795Z,7.38
2023-06-04T04:36:57.816Z,8.65
2023-06-04T04:39:25.951Z,8.38
2023-06-04T04:41:53.290Z,4.97
2023-06-04T04:44:20.869Z,5.15
2023-06-04T04:46:49.985Z,4.97
2023-06-04T04:49:17.378Z,6.72
2023-06-04T04:51:44.506Z,5.85
2023-06-04T04:54:11.885Z,6.32
2023-06-04T04:56:38.869Z,5.65
2023-06-04T04:59:06.474Z,4.43
2023-06-04T05:01:33.391Z,6.78
2023-06-04T05:04:02.951Z,4.32
2023-06-04T05:06:30.461Z,6.80
2023-06-04T05:08:57.623Z,3.78
2023-06-04T05:11:24.495Z,6.47
2023-06-04T05:13:51.760Z,6.50
2023-06-04T05:16:21.829Z,4.90
2023-06-04T05:18:52.824Z,3.67
2023-06-04T05:21:19.895Z,4.22
2023-06-04T05:23:49.526Z,9.75
2023-06-04T05:26:16.835Z,3.88
2023-06-04T05:28:44.955Z,4.78
2023-06-04T05:31:14.465Z,8.00
2023-06-04T05:33:41.786Z,6.07
2023-06-04T05:36:08.697Z,3.75
2023-06-04T05:38:36.899Z,4.22
2023-06-04T05:41:03.908Z,8.57
2023-06-04T05:43:31.216Z,5.88
2023-06-04T05:45:58.200Z,4.30
2023-06-04T05:48:25.905Z,3.70
2023-06-04T05:50:52.830Z,6.53
2023-06-04T05:53:20.128Z,4.85
2023-06-04T05:55:47.049Z,7.47
2023-06-04T05:58:14.283Z,3.85
2023-06-04T06:00:41.420Z,4.47
2023-06-04T06:03:09.117Z,7.63
2023-06-04T06:05:36.311Z,3.67
2023-06-04T06:08:03.564Z,5.82
2023-06-04T06:10:30.904Z,9.25
2023-06-04T06:12:58.198Z,8.48
2023-06-04T06:15:25.108Z,6.28
2023-06-04T06:17:52.655Z,3.08
2023-06-04T06:20:19.986Z,5.72
2023-06-04T06:22:47.380Z,3.25
2023-06-04T06:25:14.452Z,7.53
2023-06-04T06:27:41.823Z,4.63
2023-06-04T06:30:09.896Z,4.88
2023-06-04T06:32:37.209Z,4.90
2023-06-04T06:35:04.716Z,5.10
2023-06-04T06:37:31.957Z,9.40
2023-06-04T06:39:58.838Z,4.68
2023-06-04T06:42:26.194Z,7.28
2023-06-04T06:44:53.090Z,5.53
2023-06-04T06:47:20.394Z,5.72
2023-06-04T06:49:47.380Z,7.22
2023-06-04T06:52:14.655Z,7.32
2023-06-04T06:54:41.606Z,7.45
2023-06-04T06:57:10.144Z,7.00
2023-06-04T06:59:37.727Z,7.20
2023-06-04T07:02:06.469Z,4.15
2023-06-04T07:04:33.497Z,3.75
2023-06-04T07:07:00.753Z,5.32
2023-06-04T07:09:27.671Z,7.47
2023-06-04T07:11:54.983Z,5.35
2023-06-04T07:14:22.331Z,6.93
2023-06-04T07:16:49.620Z,4.50
2023-06-04T07:19:16.682Z,5.38
2023-06-04T07:21:44.096Z,7.85
2023-06-04T07:24:11.207Z,8.55
2023-06-04T07:26:38.490Z,5.28
2023-06-04T07:29:05.460Z,8.55
2023-06-04T07:31:32.638Z,5.22
2023-06-04T07:33:59.574Z,4.78
2023-06-04T07:36:26.761Z,4.13
2023-06-04T07:38:53.658Z,4.65
2023-06-04T07:41:21.385Z,3.90
2023-06-04T07:43:48.284Z,6.88
2023-06-04T07:46:19.793Z,14.20
2023-06-04T07:48:46.990Z,5.57
2023-06-04T07:51:14.796Z,6.93
2023-06-04T07:53:43.549Z,4.68
2023-06-04T07:58:37.474Z,6.13
2023-06-04T08:01:04.790Z,4.60
2023-06-04T08:03:32.613Z,3.83
2023-06-04T08:06:01.515Z,4.33
2023-06-04T08:08:29.752Z,5.07
2023-06-04T08:10:56.991Z,3.38
2023-06-04T08:13:23.944Z,3.33
2023-06-04T08:15:51.439Z,3.15
2023-06-04T08:18:18.382Z,2.88
2023-06-04T08:20:45.567Z,11.52
2023-06-04T08:23:12.459Z,2.38
2023-06-04T08:25:39.651Z,3.92
2023-06-04T08:28:07.135Z,1.75
2023-06-04T08:30:37.286Z,6.93
2023-06-04T08:33:04.327Z,2.33
2023-06-04T08:35:31.589Z,3.30
2023-06-04T08:37:58.988Z,3.20
2023-06-04T08:40:26.316Z,3.33
2023-06-04T08:42:59.245Z,6.90
2023-06-04T08:45:27.376Z,1.92
2023-06-04T08:47:55.039Z,2.40
2023-06-04T08:50:24.014Z,3.50
2023-06-04T08:52:56.180Z,3.72
2023-06-04T08:55:24.178Z,8.82
2023-06-04T08:57:54.593Z,4.80
2023-06-04T09:00:22.945Z,6.80
2023-06-04T09:02:51.179Z,3.60
2023-06-04T09:05:21.987Z,9.40
2023-06-04T09:07:53.163Z,3.38
2023-06-04T09:10:23.725Z,2.20
2023-06-04T09:12:52.887Z,5.72
2023-06-04T09:15:20.093Z,5.07
2023-06-04T09:17:47.025Z,7.00
2023-06-04T09:20:24.465Z,9.10
2023-06-04T09:22:52.015Z,2.40
2023-06-04T09:25:26.610Z,5.07
2023-06-04T09:27:56.606Z,2.97
2023-06-04T09:30:25.185Z,2.20
2023-06-04T09:32:54.494Z,5.13
2023-06-04T09:35:22.056Z,4.82
2023-06-04T09:37:58.682Z,4.13
2023-06-04T09:40:35.954Z,2.50
2023-06-04T09:43:03.764Z,6.10
2023-06-04T09:45:36.615Z,4.53
2023-06-04T09:48:09.370Z,3.47
2023-06-04T09:50:40.414Z,3.10
2023-06-04T09:53:18.934Z,8.52
2023-06-04T09:55:56.705Z,6.00
2023-06-04T09:58:26.928Z,2.90
2023-06-04T10:00:58.259Z,9.23
2023-06-04T10:03:26.871Z,7.10
2023-06-04T10:05:56.816Z,20.40
2023-06-04T10:08:27.300Z,38.00
2023-06-04T10:11:03.274Z,26.90
2023-06-04T10:13:46.534Z,2.22
2023-06-04T10:16:25.106Z,6.25
2023-06-04T10:19:01.956Z,2.30
2023-06-04T10:21:32.857Z,3.17
2023-06-04T10:24:00.451Z,5.30
2023-06-04T10:26:28.414Z,3.93
2023-06-04T10:28:58.241Z,3.03
2023-06-04T10:31:26.246Z,3.15
2023-06-04T10:33:59.448Z,7.05
2023-06-04T10:36:26.975Z,2.28
2023-06-04T10:38:56.275Z,1.70
2023-06-04T10:41:24.603Z,4.25
2023-06-04T10:43:53.536Z,3.90
2023-06-04T10:46:21.616Z,4.85
2023-06-04T10:48:54.022Z,20.60
2023-06-04T10:51:35.132Z,3.67
2023-06-04T10:54:04.263Z,15.55
2023-06-04T10:56:36.314Z,6.68
2023-06-04T10:59:15.205Z,3.22
2023-06-04T11:01:42.582Z,3.78
2023-06-04T11:04:26.189Z,3.25
2023-06-04T11:07:09.868Z,4.40
2023-06-04T11:09:38.101Z,7.05
2023-06-04T11:12:06.630Z,6.85
2023-06-04T11:14:33.581Z,3.17
2023-06-04T11:17:11.903Z,5.13
2023-06-04T11:19:39.594Z,2.58
2023-06-04T11:22:07.143Z,6.43
2023-06-04T11:24:34.192Z,1.73
2023-06-04T11:27:14.707Z,7.43
2023-06-04T11:29:44.842Z,2.47
2023-06-04T11:32:22.537Z,2.53
2023-06-04T11:34:49.619Z,5.75
2023-06-04T11:37:16.780Z,2.10
2023-06-04T11:39:45.586Z,5.32
2023-06-04T11:42:14.170Z,2.50
2023-06-04T11:44:46.292Z,2.60
2023-06-04T11:47:13.667Z,2.38
2023-06-04T11:49:40.918Z,7.32
2023-06-04T11:52:09.008Z,4.22
2023-06-04T11:54:39.701Z,5.88
2023-06-04T11:57:07.337Z,3.97
2023-06-04T11:59:35.925Z,6.53
2023-06-04T12:04:32.979Z,8.25
2023-06-04T12:07:02.514Z,6.03
2023-06-04T12:09:36.365Z,3.10
2023-06-04T12:12:06.175Z,2.28
2023-06-04T12:14:33.656Z,4.05
2023-06-04T12:17:03.125Z,4.07
2023-06-04T12:19:30.159Z,4.35
2023-06-04T12:22:08.479Z,3.92
2023-06-04T12:24:48.107Z,2.40
2023-06-04T12:27:15.912Z,3.78
2023-06-04T12:29:42.889Z,6.75
2023-06-04T12:32:14.316Z,5.65
2023-06-04T12:34:42.209Z,2.35
2023-06-04T12:37:09.873Z,5.72
2023-06-04T12:39:40.244Z,4.63
2023-06-04T12:42:09.607Z,7.20
2023-06-04T12:44:40.487Z,5.18
2023-06-04T12:47:09.241Z,13.95
2023-06-04T12:49:36.323Z,2.95
2023-06-04T12:52:03.996Z,5.10
2023-06-04T12:54:31.590Z,2.80
2023-06-04T12:57:00.306Z,4.10
2023-06-04T12:59:28.252Z,3.88
2023-06-04T13:01:56.113Z,2.20
2023-06-04T13:04:24.796Z,4.07
2023-06-04T13:11:49.100Z,4.05
2023-06-04T13:14:16.128Z,10.15
2023-06-04T13:16:43.459Z,2.78
2023-06-04T13:19:10.853Z,1.90
2023-06-04T13:21:38.115Z,2.78
2023-06-04T13:24:05.300Z,5.97
2023-06-04T13:26:32.591Z,3.47
2023-06-04T13:28:59.475Z,2.70
2023-06-04T13:31:26.768Z,4.00
2023-06-04T13:33:53.714Z,6.47
2023-06-04T13:36:20.896Z,5.28
2023-06-04T13:38:48.329Z,3.72
2023-06-04T13:41:15.601Z,4.60
2023-06-04T13:43:42.500Z,3.63
2023-06-04T13:46:09.739Z,8.05
2023-06-04T13:48:36.828Z,5.63
2023-06-04T13:51:04.099Z,13.20
2023-06-04T13:53:31.182Z,11.98
2023-06-04T13:55:59.533Z,8.98
2023-06-04T13:58:27.193Z,9.73
2023-06-04T14:00:55.401Z,5.55
2023-06-04T14:03:22.767Z,3.90
2023-06-04T14:05:50.588Z,3.80
2023-06-04T14:08:17.556Z,3.53
2023-06-04T14:10:45.360Z,4.43
2023-06-04T14:13:12.299Z,2.92
2023-06-04T14:15:39.542Z,7.05
2023-06-04T14:18:06.999Z,4.53
2023-06-04T14:20:34.250Z,6.07
2023-06-04T14:23:01.188Z,3.92
2023-06-04T14:25:28.806Z,7.47
2023-06-04T14:27:55.929Z,4.40
2023-06-04T14:30:23.192Z,3.17
2023-06-04T14:32:50.240Z,5.75
2023-06-04T14:35:17.593Z,4.45
2023-06-04T14:37:44.562Z,10.63
2023-06-04T14:40:12.159Z,3.78
2023-06-04T14:42:39.084Z,3.53
2023-06-04T14:45:06.859Z,3.85
2023-06-04T14:47:33.873Z,3.75
2023-06-04T14:50:01.186Z,4.30
2023-06-04T14:52:29.206Z,1.88
2023-06-04T14:54:56.396Z,3.00
2023-06-04T14:57:23.308Z,10.43
2023-06-04T14:59:50.642Z,7.15
2023-06-04T15:02:20.674Z,6.47
2023-06-04T15:04:48.381Z,3.97
2023-06-04T15:07:15.346Z,4.93
2023-06-04T15:09:42.522Z,6.53
2023-06-04T15:12:09.471Z,6.60
2023-06-04T15:14:36.703Z,3.40
2023-06-04T15:17:03.738Z,3.95
2023-06-04T15:19:30.922Z,4.97
2023-06-04T15:21:57.845Z,3.70
2023-06-04T15:24:25.075Z,4.88
2023-06-04T15:26:52.036Z,3.92
2023-06-04T15:29:19.214Z,5.28
2023-06-04T15:31:47.418Z,5.18
2023-06-04T15:34:14.976Z,4.50
2023-06-04T15:36:41.837Z,4.38
2023-06-04T15:39:09.093Z,7.28
2023-06-04T15:41:36.006Z,8.88
2023-06-04T15:44:03.503Z,8.88
2023-06-04T15:46:31.086Z,7.57
2023-06-04T15:48:58.525Z,16.48
2023-06-04T15:51:25.380Z,6.80
2023-06-04T15:53:52.564Z,13.00
2023-06-04T15:56:20.146Z,4.82
2023-06-04T15:58:47.397Z,4.15
2023-06-04T16:01:14.438Z,2.97
2023-06-04T16:03:41.857Z,5.68
2023-06-04T16:06:09.266Z,68.15
2023-06-04T16:08:36.800Z,13.88
2023-06-04T16:11:04.285Z,6.72
2023-06-04T16:13:32.242Z,8.57
2023-06-04T16:16:00.822Z,8.40
2023-06-04T16:18:28.871Z,5.00
2023-06-04T16:20:56.670Z,10.27
2023-06-04T16:23:23.810Z,4.20
2023-06-04T16:25:51.402Z,16.15
2023-06-04T16:28:18.819Z,4.57
2023-06-04T16:30:46.465Z,2.75
2023-06-04T16:33:13.913Z,5.03
2023-06-04T16:35:40.858Z,4.72
2023-06-04T16:38:08.101Z,5.43
2023-06-04T16:40:35.095Z,10.00
2023-06-04T16:43:02.486Z,14.20
2023-06-04T16:45:29.415Z,16.60
2023-06-04T16:47:56.893Z,12.70
2023-06-04T16:50:23.968Z,21.42
2023-06-04T16:52:51.686Z,12.13
2023-06-04T16:55:18.690Z,5.32
2023-06-04T16:57:46.003Z,5.30
2023-06-04T17:00:25.731Z,9.35
2023-06-04T17:02:58.129Z,7.07
2023-06-04T17:05:28.248Z,8.60
2023-06-04T17:07:56.014Z,13.00
2023-06-04T17:10:29.659Z,11.38
2023-06-04T17:12:56.882Z,10.55
2023-06-04T17:15:23.829Z,31.85
2023-06-04T17:17:51.351Z,18.60
2023-06-04T17:20:18.730Z,33.78
2023-06-04T17:22:45.958Z,19.38
2023-06-04T17:25:12.818Z,11.55
2023-06-04T17:27:40.217Z,9.15
2023-06-04T17:30:07.867Z,6.55
2023-06-04T17:32:35.070Z,10.32
2023-06-04T17:35:02.015Z,13.85
2023-06-04T17:37:29.274Z,14.05
2023-06-04T17:39:56.195Z,16.20
2023-06-04T17:42:23.414Z,25.20
2023-06-04T17:44:50.534Z,7.53
2023-06-04T17:47:17.810Z,11.90
2023-06-04T17:49:45.718Z,13.20
2023-06-04T17:52:12.931Z,5.20
2023-06-04T17:54:39.838Z,5.40
2023-06-04T17:57:07.959Z,4.80
2023-06-04T17:59:34.844Z,12.05
2023-06-04T18:02:02.066Z,14.40
2023-06-04T18:04:29.064Z,20.50
2023-06-04T18:06:57.781Z,12.80
2023-06-04T18:09:26.652Z,11.80
2023-06-04T18:11:53.867Z,13.07
2023-06-04T18:14:20.952Z,8.60
2023-06-04T18:16:48.287Z,10.05
2023-06-04T18:19:19.621Z,11.77
2023-06-04T18:21:48.605Z,12.70
2023-06-04T18:24:15.589Z,15.23
2023-06-04T18:26:42.713Z,21.30
2023-06-04T18:29:09.602Z,12.73
2023-06-04T18:31:37.036Z,16.77
2023-06-04T18:34:05.068Z,19.52
2023-06-04T18:36:33.225Z,18.48
2023-06-04T18:39:00.187Z,16.10
2023-06-04T18:41:27.455Z,19.40
2023-06-04T18:43:54.326Z,13.05
2023-06-04T18:46:21.584Z,19.30
2023-06-04T18:48:48.489Z,18.90
2023-06-04T18:51:15.678Z,19.50
2023-06-04T18:53:42.584Z,13.95
2023-06-04T18:56:09.940Z,16.58
2023-06-04T18:58:36.991Z,16.67
2023-06-04T19:01:04.167Z,13.25
2023-06-04T19:03:31.302Z,13.23
2023-06-04T19:05:58.520Z,12.52
2023-06-04T19:08:25.467Z,18.25
2023-06-04T19:10:53.487Z,16.67
2023-06-04T19:13:20.600Z,15.75
2023-06-04T19:15:47.788Z,16.40
2023-06-04T19:18:14.793Z,15.02
2023-06-04T19:20:41.968Z,12.98
2023-06-04T19:23:08.827Z,14.77
2023-06-04T19:25:36.263Z,15.15
2023-06-04T19:28:05.630Z,17.38
2023-06-04T19:30:33.201Z,17.13
2023-06-04T19:33:00.179Z,15.40
2023-06-04T19:35:27.490Z,21.38
2023-06-04T19:37:54.410Z,13.63
2023-06-04T19:40:21.723Z,14.88
2023-06-04T19:42:48.772Z,16.58
2023-06-04T19:45:16.210Z,18.42
2023-06-04T19:47:43.185Z,17.83
2023-06-04T19:50:12.301Z,16.85
2023-06-04T19:52:39.259Z,20.20
2023-06-04T19:55:09.076Z,20.73
2023-06-04T19:57:36.176Z,24.08
2023-06-04T20:00:05.529Z,23.70
2023-06-04T20:02:32.709Z,23.88
2023-06-04T20:05:00.014Z,25.92
2023-06-04T20:07:27.410Z,20.45
2023-06-04T20:09:54.685Z,18.67
2023-06-04T20:12:21.889Z,21.27
2023-06-04T20:14:50.033Z,23.58
2023-06-04T20:17:17.282Z,23.63
2023-06-04T20:19:44.559Z,26.25
2023-06-04T20:22:11.767Z,19.83
2023-06-04T20:24:39.841Z,24.00
2023-06-04T20:27:06.863Z,19.85
2023-06-04T20:29:34.148Z,17.88
2023-06-04T20:32:02.477Z,22.97
2023-06-04T20:34:29.695Z,19.55
2023-06-04T20:36:57.489Z,20.92
2023-06-04T20:39:25.067Z,22.23
2023-06-04T20:41:51.973Z,22.48
2023-06-04T20:44:19.675Z,23.92
2023-06-04T20:46:46.589Z,30.55
2023-06-04T20:49:13.855Z,28.52
2023-06-04T20:51:41.353Z,25.40
2023-06-04T20:54:08.593Z,23.48
2023-06-04T20:56:35.525Z,19.60
2023-06-04T20:59:02.778Z,23.05
2023-06-04T21:01:29.723Z,17.33
2023-06-04T21:04:00.756Z,20.38
2023-06-04T21:06:28.345Z,17.38
2023-06-04T21:08:55.571Z,19.10
2023-06-04T21:11:22.478Z,17.13
2023-06-04T21:13:49.714Z,18.60
2023-06-04T21:16:16.785Z,13.15
2023-06-04T21:18:44.024Z,13.50
2023-06-04T21:21:11.197Z,19.58
2023-06-04T21:23:38.851Z,15.30
2023-06-04T21:26:06.364Z,13.48
2023-06-04T21:28:33.606Z,16.52
2023-06-04T21:31:00.659Z,10.43
2023-06-04T21:33:28.229Z,13.27
2023-06-04T21:35:55.159Z,13.70
2023-06-04T21:38:22.454Z,10.73
2023-06-04T21:40:49.413Z,12.45
2023-06-04T21:43:16.653Z,15.00
2023-06-04T21:45:44.007Z,12.18
2023-06-04T21:48:11.363Z,11.60
2023-06-04T21:50:38.400Z,13.13
2023-06-04T21:53:05.591Z,10.52
2023-06-04T21:55:32.520Z,12.27
2023-06-04T21:57:59.862Z,12.50
2023-06-04T22:00:26.787Z,12.77
2023-06-04T22:02:54.050Z,14.60
2023-06-04T22:05:21.148Z,12.50
2023-06-04T22:07:48.345Z,16.50
2023-06-04T22:10:16.128Z,12.00
2023-06-04T22:12:43.313Z,9.73
2023-06-04T22:15:10.531Z,14.32
2023-06-04T22:17:37.931Z,10.07
2023-06-04T22:20:05.316Z,17.00
2023-06-04T22:22:32.532Z,11.63
2023-06-04T22:24:59.541Z,10.53
2023-06-04T22:27:26.783Z,10.95
2023-06-04T22:29:53.782Z,13.10
2023-06-04T22:32:21.117Z,18.67
2023-06-04T22:34:48.187Z,11.40
2023-06-04T22:37:16.001Z,11.97
2023-06-04T22:39:42.886Z,10.15
2023-06-04T22:42:10.108Z,10.27
2023-06-04T22:44:37.051Z,10.37
2023-06-04T22:47:04.517Z,10.43
2023-06-04T22:49:31.457Z,9.50
2023-06-04T22:51:58.958Z,10.03
2023-06-04T22:54:25.984Z,11.47
2023-06-04T22:56:53.204Z,9.80
2023-06-04T22:59:20.172Z,15.33
2023-06-04T23:01:47.502Z,9.47
2023-06-04T23:04:14.496Z,11.60
2023-06-04T23:06:41.697Z,9.32
2023-06-04T23:09:09.519Z,9.02
2023-06-04T23:11:36.786Z,11.35
2023-06-04T23:14:03.719Z,8.47
2023-06-04T23:16:30.915Z,12.20
2023-06-04T23:18:57.897Z,9.88
2023-06-04T23:21:25.478Z,12.20
2023-06-04T23:23:52.569Z,9.65
2023-06-04T23:26:19.783Z,10.43
2023-06-04T23:28:46.709Z,9.90
2023-06-04T23:31:13.893Z,11.70
2023-06-04T23:33:40.872Z,12.90
2023-06-04T23:36:08.048Z,9.13
2023-06-04T23:38:35.006Z,10.87
2023-06-04T23:41:02.251Z,12.95
2023-06-04T23:43:29.179Z,8.40
2023-06-04T23:45:56.672Z,10.60
2023-06-04T23:48:23.555Z,11.77
2023-06-04T23:50:50.999Z,8.57
2023-06-04T23:53:17.851Z,11.10
2023-06-04T23:55:45.045Z,11.05
2023-06-04T23:58:11.908Z,8.40
